Delhi, Michigan
Current Conditions -  °F | °C
As of 1:53 AM on Tuesday 21 Oct 2014 (Local Time) from KARB Reporting Station
Overcast Overcast  
Wind Chill: 46°   Ceiling: 6000
Heat Index: 49°   Visibility: 10mi
Dew Point: 42°   Wind: 7mph
Humidity: 77%   Direction: 350°N
Pressure: 29.89"   Gusts: NA
Location:  42.2601°N, 83.8448°W
Report Text: KARB 210553Z AUTO 35006KT 10SM SCT023 OVC060 09/06 A2989 RMK AO2 SLP121 60012 T00940056 10117 20094 51005
Loading
Personal Weather Stations






























Interactive Weather Map
Tropical Storm Tracking
New forecast layout! Learn more

10-Day Weather Forecast

Advertisements
Track Severe Weather on mobile